Terminal Aerodrome Forecast
Issued by NWS Binghamton, NY

Home | Current Version | Previous Version | Text Only | Print | Product List | Glossary On
Versions: 1 2 3 4 5 6 7 8 9 10 11 12 13 14 15 16 17
000
FTUS41 KBGM 270800 AAA
TAFSYR
TAF AMD
KSYR 270850Z 2709/2806 VRB03KT P6SM OVC040
      TEMPO 2710/2714 OVC025
     FM271600 19008KT P6SM BKN045
     FM280200 21012KT P6SM -SHRA SCT025 OVC035=

USA.gov is the U.S. government's official web portal to all federal, state and local government web resources and services.